Time;durP1;ratioP1;P1;durP2;ratioP2;P2;SDS_P1;SDS_P2;PMS_P1;PMS_P2;Temp;Humidity;BMP_temperature;BMP_pressure;BME280_temperature;BME280_humidity;BME280_pressure;Samples;Min_cycle;Max_cycle;Signal;HPM_P1;HPM_P2
2021/05/09 00:01:44;;;;;;;5.97;1.60;;;;;;;10.75;80.21;100604.88;6177477;28;20054;-79
2021/05/09 00:04:45;;;;;;;2.63;1.63;;;;;;;10.70;82.03;100607.75;6176738;28;20055;-79
2021/05/09 00:07:46;;;;;;;2.47;1.88;;;;;;;10.69;79.50;100606.06;6177360;28;20117;-80
2021/05/09 00:10:47;;;;;;;2.13;1.42;;;;;;;10.71;79.32;100601.56;6177003;28;20054;-78
2021/05/09 00:13:48;;;;;;;3.08;1.52;;;;;;;10.68;80.00;100603.53;6177038;28;20142;-79
2021/05/09 00:16:49;;;;;;;4.50;1.98;;;;;;;10.58;81.36;100604.06;6176843;28;20075;-78
2021/05/09 00:19:50;;;;;;;3.30;1.80;;;;;;;10.52;82.63;100601.75;6176953;28;20458;-79
2021/05/09 00:22:51;;;;;;;3.55;1.90;;;;;;;10.45;82.54;100594.31;6176681;28;20515;-79
2021/05/09 00:25:53;;;;;;;4.43;1.70;;;;;;;10.48;81.06;100588.88;6176884;28;20082;-78
2021/05/09 00:28:53;;;;;;;3.53;1.70;;;;;;;10.49;80.95;100590.56;6176686;28;20051;-78
2021/05/09 00:31:54;;;;;;;3.78;1.80;;;;;;;10.55;80.55;100598.97;6176716;28;20050;-79
2021/05/09 00:34:55;;;;;;;3.00;1.60;;;;;;;10.50;82.15;100592.28;6176335;28;20050;-79
2021/05/09 00:37:56;;;;;;;4.00;1.90;;;;;;;10.43;82.00;100591.75;6176331;28;20074;-79
2021/05/09 00:40:58;;;;;;;5.13;1.63;;;;;;;10.43;82.51;100593.53;6176494;28;20055;-78
2021/05/09 00:43:58;;;;;;;3.60;2.10;;;;;;;10.44;81.72;100582.94;6176052;28;20659;-79
2021/05/09 00:47:01;;;;;;;4.75;1.48;;;;;;;10.47;81.08;100589.81;6176575;28;20053;-78
2021/05/09 00:50:03;;;;;;;4.93;1.58;;;;;;;10.54;79.88;100584.13;6176038;28;20073;-79
2021/05/09 00:53:05;;;;;;;3.10;1.60;;;;;;;10.59;79.15;100589.97;6175920;28;20105;-79
2021/05/09 00:56:08;;;;;;;3.88;1.52;;;;;;;10.50;81.03;100587.00;6175571;28;20396;-79
2021/05/09 00:59:12;;;;;;;4.80;1.70;;;;;;;10.49;80.45;100582.66;6176016;28;20055;-79
2021/05/09 01:02:13;;;;;;;5.47;1.70;;;;;;;10.44;80.15;100577.66;6175405;28;20051;-79
2021/05/09 01:05:15;;;;;;;6.07;1.77;;;;;;;10.47;80.33;100587.19;6175140;28;20043;-79
2021/05/09 01:08:16;;;;;;;4.32;1.60;;;;;;;10.48;80.52;100580.97;6175999;28;20046;-80
2021/05/09 01:11:18;;;;;;;5.88;1.70;;;;;;;10.50;79.93;100581.75;6175783;28;20047;-79
2021/05/09 01:14:19;;;;;;;5.50;1.65;;;;;;;10.37;80.06;100582.44;6175873;28;20118;-79
2021/05/09 01:17:20;;;;;;;3.65;1.50;;;;;;;10.36;81.05;100578.13;6175248;28;20532;-79
2021/05/09 01:20:35;;;;;;;3.78;1.48;;;;;;;10.31;80.70;100576.66;6175755;28;20059;-79
2021/05/09 01:23:36;;;;;;;5.75;1.90;;;;;;;10.28;81.50;100574.22;6175372;28;20109;-79
2021/05/09 01:26:37;;;;;;;4.95;1.60;;;;;;;10.21;81.02;100576.28;6175248;28;20051;-79
2021/05/09 01:29:38;;;;;;;3.33;1.70;;;;;;;10.21;81.03;100578.91;6175872;28;20455;-79
2021/05/09 01:32:39;;;;;;;3.17;1.80;;;;;;;10.11;82.49;100570.69;6175463;28;20078;-79
2021/05/09 01:35:41;;;;;;;2.45;1.42;;;;;;;10.14;81.92;100573.16;6175450;28;20046;-78
2021/05/09 01:38:41;;;;;;;6.95;1.88;;;;;;;10.06;81.85;100572.72;6176162;28;20062;-79
2021/05/09 01:41:42;;;;;;;8.18;1.80;;;;;;;9.97;83.12;100567.13;6174398;28;20051;-79
2021/05/09 01:44:50;;;;;;;7.60;2.17;;;;;;;9.89;83.86;100565.72;6175055;28;20126;-78
2021/05/09 01:47:51;;;;;;;3.38;1.33;;;;;;;9.90;83.11;100562.22;6174988;28;20580;-79
2021/05/09 01:50:52;;;;;;;3.80;1.70;;;;;;;9.90;83.70;100559.59;6175405;28;20083;-78
2021/05/09 01:53:53;;;;;;;3.15;1.75;;;;;;;9.87;84.63;100554.47;6175215;28;20051;-79
2021/05/09 01:56:54;;;;;;;4.15;2.00;;;;;;;9.82;85.45;100553.03;6175301;28;20054;-78
2021/05/09 01:59:55;;;;;;;4.05;1.80;;;;;;;9.80;84.80;100558.34;6175368;28;20047;-79
2021/05/09 02:02:56;;;;;;;2.45;1.73;;;;;;;9.74;85.05;100561.31;6175266;28;20054;-79
2021/05/09 02:05:57;;;;;;;3.47;1.63;;;;;;;9.67;85.68;100565.16;6175415;28;20102;-79
2021/05/09 02:08:58;;;;;;;4.75;1.58;;;;;;;9.58;86.69;100570.91;6175074;28;20452;-78
2021/05/09 02:11:59;;;;;;;2.78;1.58;;;;;;;9.50;87.05;100560.81;6175191;28;20094;-79
2021/05/09 02:15:00;;;;;;;2.85;1.60;;;;;;;9.43;87.42;100556.81;6175433;28;20083;-78
2021/05/09 02:18:01;;;;;;;3.05;1.63;;;;;;;9.37;88.16;100559.75;6175635;28;20054;-79
2021/05/09 02:21:03;;;;;;;2.00;1.65;;;;;;;9.31;87.91;100563.56;6174692;28;20051;-79
2021/05/09 02:24:05;;;;;;;2.85;1.52;;;;;;;9.29;88.89;100559.31;6158923;28;20054;-79
2021/05/09 02:27:06;;;;;;;3.58;1.98;;;;;;;9.29;88.26;100557.53;6151025;28;20044;-79
2021/05/09 02:30:08;;;;;;;3.80;1.80;;;;;;;9.24;88.25;100554.28;6150813;28;20059;-78
2021/05/09 02:33:11;;;;;;;3.28;1.90;;;;;;;9.22;88.07;100555.28;6150203;28;20055;-78
2021/05/09 02:36:13;;;;;;;3.60;1.73;;;;;;;9.23;87.53;100554.38;6171576;28;20078;-79
2021/05/09 02:39:14;;;;;;;3.45;1.63;;;;;;;9.24;86.69;100551.66;6175108;28;20050;-78
2021/05/09 02:42:15;;;;;;;3.05;1.63;;;;;;;9.25;87.46;100552.50;6173989;28;20170;-79
2021/05/09 02:45:16;;;;;;;4.50;1.95;;;;;;;9.24;86.81;100543.81;6174911;28;20070;-79
2021/05/09 02:48:17;;;;;;;2.63;1.58;;;;;;;9.26;87.89;100555.03;6174830;28;20043;-80
2021/05/09 02:51:19;;;;;;;4.57;2.10;;;;;;;9.26;86.98;100551.56;6175342;28;20515;-79
2021/05/09 02:54:20;;;;;;;2.50;1.70;;;;;;;9.23;87.27;100544.72;6178763;28;20089;-78
2021/05/09 02:57:21;;;;;;;2.92;1.75;;;;;;;9.27;86.23;100545.44;6178377;28;20499;-79
2021/05/09 03:00:22;;;;;;;5.75;2.33;;;;;;;9.32;85.53;100541.63;6178807;28;20051;-79
2021/05/09 03:03:23;;;;;;;3.58;1.67;;;;;;;9.26;86.32;100548.97;6178883;28;20043;-79
2021/05/09 03:06:25;;;;;;;6.00;1.75;;;;;;;9.25;86.85;100544.66;6179284;28;20473;-79
2021/05/09 03:09:26;;;;;;;3.95;1.70;;;;;;;9.29;85.75;100540.94;6161698;28;20408;-78
2021/05/09 03:12:27;;;;;;;4.45;2.00;;;;;;;9.25;86.22;100537.63;6154622;28;20059;-79
2021/05/09 03:15:28;;;;;;;3.72;2.03;;;;;;;9.23;86.32;100541.28;6154917;28;20058;-78
2021/05/09 03:18:29;;;;;;;5.90;1.60;;;;;;;9.26;87.14;100546.34;6154409;28;20516;-79
2021/05/09 03:21:30;;;;;;;6.40;1.83;;;;;;;9.26;87.19;100552.41;6154789;28;20182;-79
2021/05/09 03:24:31;;;;;;;1.60;1.50;;;;;;;9.24;86.95;100550.81;6153969;28;20066;-78
2021/05/09 03:27:32;;;;;;;3.53;2.10;;;;;;;9.20;86.73;100555.38;6154235;28;20527;-79
2021/05/09 03:30:33;;;;;;;5.38;2.00;;;;;;;9.15;87.19;100541.66;6154238;28;20423;-79
2021/05/09 03:33:34;;;;;;;4.50;2.03;;;;;;;9.08;88.37;100540.25;6154007;28;20051;-80
2021/05/09 03:36:35;;;;;;;3.72;2.20;;;;;;;9.10;88.03;100547.13;6153294;28;20051;-79
2021/05/09 03:39:36;;;;;;;2.50;1.75;;;;;;;9.05;88.25;100535.19;6154600;28;20086;-79
2021/05/09 03:42:37;;;;;;;6.72;1.85;;;;;;;9.01;89.46;100531.84;6154195;28;20100;-79
2021/05/09 03:45:38;;;;;;;4.65;2.30;;;;;;;8.97;89.80;100525.06;6153352;28;20138;-79
2021/05/09 03:48:39;;;;;;;2.60;2.10;;;;;;;8.91;89.80;100521.94;6153205;28;20051;-79
2021/05/09 03:51:40;;;;;;;2.67;1.77;;;;;;;8.86;90.30;100520.38;6153160;28;20062;-79
2021/05/09 03:54:41;;;;;;;3.75;1.98;;;;;;;8.82;90.68;100531.09;6152639;28;20093;-79
2021/05/09 03:57:43;;;;;;;3.72;2.03;;;;;;;8.80;91.62;100525.06;6153091;28;20136;-79
2021/05/09 04:00:44;;;;;;;3.05;2.13;;;;;;;8.76;91.42;100524.34;6153774;28;20058;-78
2021/05/09 04:03:45;;;;;;;3.88;2.28;;;;;;;8.74;92.02;100525.38;6153842;28;20518;-78
2021/05/09 04:06:46;;;;;;;5.53;2.25;;;;;;;8.73;92.65;100527.16;6154829;28;20070;-78
2021/05/09 04:09:47;;;;;;;6.50;2.45;;;;;;;8.72;92.46;100520.22;6154156;28;20459;-79
2021/05/09 04:12:48;;;;;;;5.15;2.20;;;;;;;8.74;92.42;100520.13;6153528;28;20090;-78
2021/05/09 04:15:49;;;;;;;3.42;2.40;;;;;;;8.74;92.83;100520.97;6154119;28;20047;-79
2021/05/09 04:18:50;;;;;;;4.80;2.10;;;;;;;8.75;92.53;100524.44;6153634;28;20523;-78
2021/05/09 04:21:52;;;;;;;3.40;2.20;;;;;;;8.74;92.72;100526.22;6153477;28;20055;-78
2021/05/09 04:24:53;;;;;;;3.33;2.10;;;;;;;8.73;93.06;100535.00;6153482;28;20082;-78
2021/05/09 04:27:54;;;;;;;3.95;2.35;;;;;;;8.76;92.73;100532.22;6153835;28;20047;-79
2021/05/09 04:30:55;;;;;;;3.42;2.20;;;;;;;8.75;92.50;100530.53;6153850;28;20078;-79
2021/05/09 04:33:55;;;;;;;4.68;2.10;;;;;;;8.77;93.32;100530.47;6154028;28;20057;-78
2021/05/09 04:36:57;;;;;;;4.82;2.28;;;;;;;8.77;93.20;100526.06;6153614;28;20397;-78
2021/05/09 04:39:58;;;;;;;8.30;2.25;;;;;;;8.81;93.43;100518.88;6153805;28;20047;-78
2021/05/09 04:43:05;;;;;;;4.72;2.33;;;;;;;8.83;93.78;100519.69;6153275;28;20055;-78
2021/05/09 04:46:06;;;;;;;7.18;2.30;;;;;;;8.87;93.99;100513.38;6154418;28;20058;-79
2021/05/09 04:49:07;;;;;;;4.65;2.15;;;;;;;8.90;94.00;100515.81;6153602;28;20111;-78
2021/05/09 04:52:09;;;;;;;8.60;3.28;;;;;;;8.94;93.59;100519.97;6153387;28;20059;-78
2021/05/09 04:55:11;;;;;;;4.88;2.88;;;;;;;9.02;93.22;100519.59;6153005;28;20058;-78
2021/05/09 04:58:11;;;;;;;2.40;2.17;;;;;;;9.09;92.62;100521.00;6153210;28;20055;-78
2021/05/09 05:01:13;;;;;;;8.02;2.28;;;;;;;9.16;93.37;100519.75;6153029;28;20527;-78
2021/05/09 05:04:13;;;;;;;5.53;2.45;;;;;;;9.26;92.51;100520.97;6152735;28;20057;-78
2021/05/09 05:07:19;;;;;;;6.68;2.10;;;;;;;9.28;92.99;100524.38;6162430;28;20047;-78
2021/05/09 05:10:20;;;;;;;3.25;2.00;;;;;;;9.43;91.81;100516.63;6168198;28;20050;-79
2021/05/09 05:13:24;;;;;;;2.88;2.10;;;;;;;9.46;92.05;100509.44;6169637;28;20169;-78
2021/05/09 05:16:25;;;;;;;4.15;2.35;;;;;;;9.52;92.47;100496.00;6151866;28;20051;-78
2021/05/09 05:19:26;;;;;;;5.22;2.00;;;;;;;9.54;92.32;100495.94;6158819;28;20474;-79
2021/05/09 05:22:27;;;;;;;3.90;2.10;;;;;;;9.59;93.16;100505.25;6161200;28;20106;-78
2021/05/09 05:25:28;;;;;;;3.50;2.10;;;;;;;9.68;92.59;100509.16;6151875;28;20055;-78
2021/05/09 05:28:29;;;;;;;3.33;2.13;;;;;;;9.81;92.06;100504.09;6152393;28;20050;-78
2021/05/09 05:31:30;;;;;;;6.40;2.85;;;;;;;10.05;90.81;100505.38;6152603;28;20047;-78
2021/05/09 05:34:31;;;;;;;4.32;2.17;;;;;;;10.12;90.56;100500.63;6152012;28;20110;-78
2021/05/09 05:37:32;;;;;;;4.93;1.88;;;;;;;10.18;91.65;100507.34;6152172;28;20831;-78
2021/05/09 05:40:33;;;;;;;2.88;1.80;;;;;;;10.26;90.62;100503.38;6162125;28;20043;-78
2021/05/09 05:43:34;;;;;;;5.25;1.83;;;;;;;10.47;89.24;100511.84;6152150;28;20057;-79
2021/05/09 05:46:35;;;;;;;4.30;1.80;;;;;;;10.54;89.66;100513.19;6151884;28;20048;-79
2021/05/09 05:49:36;;;;;;;3.67;1.98;;;;;;;10.62;89.37;100513.56;6151946;28;20051;-78
2021/05/09 05:52:38;;;;;;;3.10;1.75;;;;;;;10.79;89.75;100507.34;6151333;28;20098;-78
2021/05/09 05:55:38;;;;;;;2.53;1.90;;;;;;;10.88;89.48;100501.56;6151865;28;20058;-79
2021/05/09 05:58:40;;;;;;;4.18;1.90;;;;;;;10.99;89.06;100502.69;6152071;28;20071;-78
2021/05/09 06:01:41;;;;;;;2.58;1.75;;;;;;;10.99;90.03;100507.97;6152024;28;20509;-78
2021/05/09 06:04:42;;;;;;;5.25;2.35;;;;;;;11.14;88.48;100517.59;6151899;28;20098;-79
2021/05/09 06:07:44;;;;;;;6.53;2.03;;;;;;;11.34;88.25;100524.28;6152320;28;20086;-78
2021/05/09 06:10:45;;;;;;;5.82;2.00;;;;;;;11.49;87.27;100518.13;6152076;28;20051;-79
2021/05/09 06:13:46;;;;;;;5.03;1.80;;;;;;;11.60;87.39;100513.03;6152302;28;20048;-79
2021/05/09 06:16:46;;;;;;;3.83;1.67;;;;;;;11.64;87.96;100516.31;6152351;28;20048;-79
2021/05/09 06:19:47;;;;;;;4.22;1.67;;;;;;;11.76;88.40;100512.91;6158169;28;20627;-78
2021/05/09 06:22:49;;;;;;;7.25;2.22;;;;;;;11.79;87.99;100520.63;6161272;28;20512;-78
2021/05/09 06:25:51;;;;;;;2.22;1.48;;;;;;;11.89;87.21;100528.84;6157623;28;20048;-78
2021/05/09 06:28:53;;;;;;;8.05;1.80;;;;;;;11.99;87.44;100524.72;6165329;28;20070;-78
2021/05/09 06:31:54;;;;;;;7.03;1.90;;;;;;;12.03;87.06;100526.19;6167543;28;20047;-78
2021/05/09 06:34:55;;;;;;;2.30;1.70;;;;;;;12.14;88.60;100525.53;6156389;28;20417;-78
2021/05/09 06:37:57;;;;;;;2.55;1.40;;;;;;;12.19;87.97;100516.38;6156692;28;20055;-78
2021/05/09 06:40:58;;;;;;;3.78;1.67;;;;;;;12.33;87.30;100528.66;6157006;28;20055;-78
2021/05/09 06:44:00;;;;;;;7.97;1.77;;;;;;;12.50;85.92;100518.84;6157890;28;20051;-77
2021/05/09 06:47:02;;;;;;;3.53;2.10;;;;;;;12.74;84.51;100521.66;6178956;28;20051;-76
2021/05/09 06:50:03;;;;;;;2.55;1.77;;;;;;;12.87;84.94;100515.47;6175317;28;20051;-76
2021/05/09 06:53:06;;;;;;;5.88;1.70;;;;;;;12.92;84.63;100518.63;6170773;28;20050;-76
2021/05/09 06:56:07;;;;;;;4.72;1.60;;;;;;;13.25;80.36;100511.22;6171022;28;20101;-76
2021/05/09 06:59:08;;;;;;;4.72;1.90;;;;;;;13.40;81.31;100512.81;6178418;28;20055;-77
2021/05/09 07:02:09;;;;;;;3.47;1.45;;;;;;;13.43;81.15;100513.44;6180182;28;20050;-75
2021/05/09 07:05:10;;;;;;;5.47;2.00;;;;;;;13.47;82.65;100498.25;6178754;28;20133;-76
2021/05/09 07:08:12;;;;;;;2.97;1.58;;;;;;;13.68;81.19;100502.03;6179142;28;20508;-76
2021/05/09 07:11:13;;;;;;;4.53;1.85;;;;;;;13.66;80.65;100509.19;6172237;28;20047;-76
2021/05/09 07:14:14;;;;;;;3.42;1.50;;;;;;;13.74;80.32;100508.66;6179517;28;20051;-76
2021/05/09 07:17:16;;;;;;;2.85;1.63;;;;;;;13.86;77.74;100506.97;6178587;28;20050;-76
2021/05/09 07:20:17;;;;;;;4.60;1.67;;;;;;;13.98;77.17;100510.53;6178429;28;20110;-76
2021/05/09 07:23:19;;;;;;;3.75;1.60;;;;;;;14.02;79.59;100506.72;6177500;28;20058;-76
2021/05/09 07:26:20;;;;;;;4.68;1.75;;;;;;;14.14;78.36;100505.84;6177227;28;20127;-76
2021/05/09 07:29:21;;;;;;;2.50;1.60;;;;;;;14.30;77.63;100502.91;6178887;28;20054;-76
2021/05/09 07:32:21;;;;;;;3.22;1.65;;;;;;;14.38;76.58;100498.75;6179296;28;20089;-77
2021/05/09 07:35:22;;;;;;;3.85;1.60;;;;;;;14.43;76.35;100495.78;6179525;28;20129;-77
2021/05/09 07:38:24;;;;;;;6.43;1.50;;;;;;;14.54;76.24;100502.97;6177727;28;20051;-76
2021/05/09 07:41:25;;;;;;;3.80;1.85;;;;;;;14.68;74.63;100498.34;6177828;28;20055;-76
2021/05/09 07:44:26;;;;;;;1.98;1.42;;;;;;;14.83;75.21;100492.84;6177713;28;20456;-78
2021/05/09 07:47:27;;;;;;;2.53;1.52;;;;;;;14.93;75.73;100483.25;6172321;28;20492;-76
2021/05/09 07:50:28;;;;;;;2.85;1.48;;;;;;;14.95;75.09;100484.84;6163751;28;20062;-77
2021/05/09 07:53:30;;;;;;;4.13;1.73;;;;;;;14.94;75.21;100485.81;6162488;28;20058;-76
2021/05/09 07:56:32;;;;;;;2.25;1.38;;;;;;;15.19;74.40;100481.28;6164575;28;20447;-77
2021/05/09 07:59:34;;;;;;;8.32;5.10;;;;;;;15.25;75.06;100480.78;6170166;28;20046;-77
2021/05/09 08:02:35;;;;;;;3.25;1.73;;;;;;;15.38;72.54;100473.59;6172693;28;20061;-76
2021/05/09 08:05:36;;;;;;;3.40;1.80;;;;;;;15.35;74.99;100468.56;6183241;28;20054;-77
2021/05/09 08:08:38;;;;;;;8.48;1.58;;;;;;;15.55;74.57;100463.50;6171572;28;20056;-77
2021/05/09 08:11:39;;;;;;;3.20;1.40;;;;;;;15.42;74.08;100469.75;6160509;29;20054;-76
2021/05/09 08:14:40;;;;;;;5.90;1.70;;;;;;;15.52;73.76;100467.22;6158329;28;20500;-76
2021/05/09 08:17:41;;;;;;;3.83;1.58;;;;;;;15.65;73.97;100461.84;6176567;28;20496;-77
2021/05/09 08:20:41;;;;;;;3.20;1.55;;;;;;;15.68;74.22;100457.13;6184378;28;20054;-76
2021/05/09 08:23:44;;;;;;;6.00;1.52;;;;;;;15.90;72.84;100463.38;6185075;28;20058;-77
2021/05/09 08:26:45;;;;;;;5.78;2.00;;;;;;;15.97;72.33;100452.16;6184627;28;20046;-77
2021/05/09 08:29:46;;;;;;;4.18;1.48;;;;;;;16.14;71.65;100455.25;6183085;28;20518;-76
2021/05/09 08:32:47;;;;;;;3.35;1.60;;;;;;;16.27;71.43;100450.63;6175887;28;20047;-77
2021/05/09 08:35:47;;;;;;;3.33;1.45;;;;;;;16.17;71.43;100439.13;6176058;28;20058;-77
2021/05/09 08:38:49;;;;;;;5.45;1.20;;;;;;;16.29;72.66;100443.38;6175920;28;20046;-76
2021/05/09 08:41:50;;;;;;;4.82;1.30;;;;;;;16.28;72.02;100439.06;6171584;28;20051;-76
2021/05/09 08:44:54;;;;;;;4.72;1.55;;;;;;;16.39;72.80;100439.00;6167684;28;20496;-76
2021/05/09 08:47:55;;;;;;;6.05;1.30;;;;;;;16.55;69.55;100430.63;6164021;28;20057;-76
2021/05/09 08:50:56;;;;;;;4.72;1.40;;;;;;;16.54;71.94;100436.06;6165674;28;20134;-76
2021/05/09 08:53:58;;;;;;;2.22;1.50;;;;;;;16.62;71.59;100426.50;6159230;28;20069;-78
2021/05/09 08:57:01;;;;;;;5.53;1.45;;;;;;;16.62;70.73;100431.81;6165493;28;20515;-78
2021/05/09 09:00:03;;;;;;;2.65;1.40;;;;;;;16.82;70.06;100432.81;6158479;28;20047;-78
2021/05/09 09:03:04;;;;;;;4.45;1.67;;;;;;;16.90;71.46;100432.16;6161524;28;20561;-78
2021/05/09 09:06:09;;;;;;;3.67;1.45;;;;;;;16.91;68.66;100423.22;6164495;28;20507;-78
2021/05/09 09:09:21;;;;;;;4.93;1.38;;;;;;;17.09;68.74;100423.47;6165837;28;20042;-78
2021/05/09 09:12:22;;;;;;;4.72;1.60;;;;;;;17.02;68.69;100417.84;6176596;28;20073;-78
2021/05/09 09:15:23;;;;;;;3.05;1.33;;;;;;;17.16;68.55;100409.50;6177277;28;20046;-78
2021/05/09 09:18:29;;;;;;;2.72;1.23;;;;;;;17.53;66.40;100402.81;6175618;28;20043;-76
2021/05/09 09:21:31;;;;;;;2.33;1.45;;;;;;;17.62;66.75;100402.00;6177029;28;20058;-78
2021/05/09 09:24:33;;;;;;;2.90;1.38;;;;;;;17.75;64.54;100395.50;6175086;28;20062;-79
2021/05/09 09:27:34;;;;;;;2.05;1.15;;;;;;;17.84;65.03;100401.81;6177829;28;20058;-79
2021/05/09 09:30:48;;;;;;;5.93;1.10;;;;;;;17.98;63.29;100393.44;6176422;28;20056;-78
2021/05/09 09:33:50;;;;;;;4.10;1.40;;;;;;;18.00;62.35;100399.47;6177787;28;20492;-78
2021/05/09 09:37:01;;;;;;;3.05;1.33;;;;;;;18.04;64.32;100397.38;6177674;28;20135;-78
2021/05/09 09:40:03;;;;;;;6.07;1.63;;;;;;;18.19;63.29;100385.34;6178891;28;20053;-78
2021/05/09 09:43:17;;;;;;;3.85;1.20;;;;;;;18.32;62.47;100384.22;6177568;28;20058;-78
2021/05/09 09:46:26;;;;;;;3.08;0.95;;;;;;;18.32;63.19;100374.44;6177252;28;20051;-78
2021/05/09 09:49:30;;;;;;;8.27;1.23;;;;;;;18.48;62.47;100376.50;6176508;28;20051;-78
2021/05/09 09:52:31;;;;;;;2.95;1.35;;;;;;;18.51;61.44;100373.56;6176841;28;20619;-78
2021/05/09 09:55:32;;;;;;;4.78;1.30;;;;;;;18.77;60.77;100371.19;6175675;28;20055;-78
2021/05/09 09:58:42;;;;;;;3.42;0.93;;;;;;;18.91;61.63;100353.91;6177468;28;20514;-78
2021/05/09 10:01:44;;;;;;;2.70;1.35;;;;;;;18.87;59.78;100352.50;6169517;28;20055;-79
2021/05/09 10:04:45;;;;;;;4.63;1.10;;;;;;;18.96;61.42;100346.31;6167410;28;20058;-78
2021/05/09 10:07:47;;;;;;;2.97;1.25;;;;;;;19.17;61.29;100335.44;6176242;28;20058;-78
2021/05/09 10:10:51;;;;;;;2.25;1.00;;;;;;;19.39;57.78;100332.34;6173494;28;20048;-78
2021/05/09 10:13:52;;;;;;;7.88;1.08;;;;;;;19.49;59.51;100333.16;6244012;22;20046;-75
2021/05/09 10:16:54;;;;;;;1.77;1.10;;;;;;;19.55;57.64;100336.22;6243083;28;20464;-75
2021/05/09 10:19:55;;;;;;;2.42;1.30;;;;;;;19.87;56.05;100323.25;6251502;28;20049;-76
2021/05/09 10:23:04;;;;;;;1.73;1.00;;;;;;;19.86;55.58;100326.91;6239640;28;20057;-75
2021/05/09 10:26:05;;;;;;;3.47;1.98;;;;;;;19.91;56.01;100321.94;6238342;28;20050;-75
2021/05/09 10:29:06;;;;;;;5.40;1.10;;;;;;;20.21;53.33;100320.72;6226418;28;20049;-75
2021/05/09 10:32:09;;;;;;;1.73;1.08;;;;;;;20.31;53.81;100320.63;6234399;28;20123;-75
2021/05/09 10:35:10;;;;;;;2.40;1.05;;;;;;;20.46;53.66;100316.38;6242404;28;20053;-75
2021/05/09 10:38:11;;;;;;;1.13;0.82;;;;;;;20.58;51.89;100309.00;6250928;28;20048;-75
2021/05/09 10:41:12;;;;;;;5.82;1.02;;;;;;;20.64;50.79;100310.19;6250866;28;20045;-75
2021/05/09 10:44:41;;;;;;;6.10;1.05;;;;;;;20.67;51.36;100297.38;6250884;28;20049;-76
2021/05/09 10:47:42;;;;;;;1.83;1.00;;;;;;;20.68;51.67;100287.53;6250672;28;20414;-75
2021/05/09 10:50:44;;;;;;;4.88;1.30;;;;;;;20.87;50.10;100278.44;6251059;28;20057;-75
2021/05/09 10:53:45;;;;;;;6.10;1.45;;;;;;;21.15;50.07;100276.38;6250125;28;20049;-75
2021/05/09 10:56:47;;;;;;;3.45;1.15;;;;;;;21.24;49.47;100265.56;6250745;28;20427;-75
2021/05/09 10:59:58;;;;;;;7.25;1.45;;;;;;;21.44;48.13;100260.81;6250440;28;20061;-76
2021/05/09 11:02:58;;;;;;;4.60;0.90;;;;;;;21.66;46.83;100264.66;6249868;28;20136;-75
2021/05/09 11:06:04;;;;;;;4.80;1.13;;;;;;;21.77;45.59;100263.53;6250318;28;20057;-75
2021/05/09 11:09:06;;;;;;;1.70;0.90;;;;;;;21.99;46.12;100262.03;6244055;28;20403;-76
2021/05/09 11:12:08;;;;;;;2.60;1.02;;;;;;;22.25;43.13;100251.97;6235280;28;20046;-75
2021/05/09 11:15:13;;;;;;;4.28;1.10;;;;;;;22.41;44.37;100244.94;6224038;28;20056;-74
2021/05/09 11:18:15;;;;;;;2.35;1.25;;;;;;;22.64;44.55;100243.19;6225193;28;20545;-75
2021/05/09 11:21:20;;;;;;;1.38;1.00;;;;;;;22.76;44.70;100249.03;6224918;28;20062;-75
2021/05/09 11:24:23;;;;;;;18.85;1.60;;;;;;;23.06;44.07;100235.84;6224571;28;20057;-76
2021/05/09 11:27:25;;;;;;;2.08;1.00;;;;;;;23.22;44.94;100227.75;6223210;28;20066;-76
2021/05/09 11:30:36;;;;;;;2.20;1.20;;;;;;;23.55;44.37;100226.50;6245446;28;20140;-76
2021/05/09 11:33:52;;;;;;;2.00;1.20;;;;;;;23.73;44.17;100215.50;6241465;28;20494;-76
2021/05/09 11:36:55;;;;;;;2.85;1.10;;;;;;;24.26;43.77;100208.31;6224903;28;20565;-76
2021/05/09 11:39:59;;;;;;;0.98;0.88;;;;;;;24.68;42.81;100201.47;6224454;28;20498;-76
2021/05/09 11:43:11;;;;;;;4.60;1.52;;;;;;;24.84;40.49;100202.28;6223794;28;20050;-75
2021/05/09 11:46:18;;;;;;;5.93;2.20;;;;;;;25.16;43.14;100201.84;6224580;28;20100;-76
2021/05/09 11:49:20;;;;;;;3.88;1.13;;;;;;;25.50;42.58;100198.50;6224601;28;20104;-76
2021/05/09 11:52:23;;;;;;;70.18;4.18;;;;;;;25.58;41.43;100194.84;6224126;28;20054;-76
2021/05/09 11:55:24;;;;;;;24.30;2.20;;;;;;;25.73;40.28;100184.00;6223903;28;20065;-76
2021/05/09 11:58:26;;;;;;;4.47;1.00;;;;;;;26.02;43.61;100188.38;6224224;28;20049;-76
2021/05/09 12:01:34;;;;;;;3.75;1.10;;;;;;;26.24;42.01;100183.78;6224326;28;20141;-75
2021/05/09 12:04:34;;;;;;;49.40;2.33;;;;;;;26.35;41.62;100179.72;6223552;28;20061;-76
2021/05/09 12:07:41;;;;;;;3.10;1.40;;;;;;;26.36;41.44;100173.28;6224037;28;20502;-76
2021/05/09 12:10:42;;;;;;;1.48;0.90;;;;;;;26.73;39.33;100166.66;6231050;28;20054;-76
2021/05/09 12:13:44;;;;;;;5.57;1.30;;;;;;;26.85;41.20;100158.84;6245358;28;20049;-76
2021/05/09 12:16:47;;;;;;;5.35;1.20;;;;;;;26.91;40.00;100147.22;6242090;28;20049;-76
2021/05/09 12:19:48;;;;;;;4.43;1.20;;;;;;;26.96;41.01;100150.13;6239868;28;20521;-76
2021/05/09 12:22:49;;;;;;;9.73;1.20;;;;;;;26.98;41.82;100148.06;6245088;28;20498;-76
2021/05/09 12:25:51;;;;;;;9.00;1.27;;;;;;;26.90;40.21;100134.78;6242274;28;20056;-76
2021/05/09 12:28:53;;;;;;;1.75;1.13;;;;;;;26.76;39.84;100137.44;6248601;28;20041;-76
2021/05/09 12:31:53;;;;;;;6.13;0.93;;;;;;;26.70;42.02;100138.22;6244662;28;20049;-76
2021/05/09 12:35:07;;;;;;;4.53;1.52;;;;;;;26.95;39.81;100135.81;6242994;28;20060;-76
2021/05/09 12:38:07;;;;;;;1.20;0.88;;;;;;;26.95;39.80;100132.31;6247985;28;20099;-76
2021/05/09 12:41:11;;;;;;;4.50;1.30;;;;;;;26.78;40.97;100121.03;6239320;28;20053;-76
2021/05/09 12:44:22;;;;;;;4.28;1.17;;;;;;;26.59;40.41;100111.84;6238765;28;20049;-76
2021/05/09 12:47:23;;;;;;;11.20;1.23;;;;;;;26.48;40.20;100112.41;6248065;28;20045;-76
2021/05/09 12:50:24;;;;;;;5.25;1.35;;;;;;;26.44;40.93;100098.53;6247804;28;20123;-76
2021/05/09 12:53:40;;;;;;;3.20;1.45;;;;;;;26.21;42.19;100088.03;6246875;28;20065;-76
2021/05/09 12:56:40;;;;;;;2.40;1.20;;;;;;;26.47;42.37;100083.81;6247753;28;20053;-76
2021/05/09 12:59:46;;;;;;;4.05;0.98;;;;;;;26.50;42.86;100078.03;6247642;28;20095;-76
2021/05/09 13:02:48;;;;;;;2.53;1.23;;;;;;;26.67;42.61;100070.44;6246534;28;20134;-75
2021/05/09 13:05:52;;;;;;;8.23;1.20;;;;;;;26.68;40.14;100072.06;6247159;28;20086;-76
2021/05/09 13:08:54;;;;;;;2.40;0.88;;;;;;;26.67;41.42;100071.25;6247357;28;20072;-76
2021/05/09 13:11:56;;;;;;;1.25;1.05;;;;;;;26.47;42.06;100054.19;6247489;28;20053;-76
2021/05/09 13:14:57;;;;;;;2.30;1.27;;;;;;;26.57;45.10;100062.69;6246880;28;20045;-76
2021/05/09 13:17:59;;;;;;;9.32;1.35;;;;;;;26.77;41.21;100065.47;6247231;28;20045;-76
2021/05/09 13:21:00;;;;;;;6.53;2.95;;;;;;;26.87;43.76;100059.69;6247616;28;20053;-76
2021/05/09 13:24:01;;;;;;;5.90;1.50;;;;;;;27.04;42.22;100048.28;6246837;28;20045;-75
2021/05/09 13:27:02;;;;;;;10.10;1.30;;;;;;;27.33;42.24;100054.34;6247328;28;20520;-76
2021/05/09 13:30:07;;;;;;;1.25;1.02;;;;;;;27.62;40.28;100053.09;6236824;28;20052;-76
2021/05/09 13:33:07;;;;;;;4.70;1.00;;;;;;;27.79;41.39;100050.78;6232998;28;20296;-76
2021/05/09 13:36:09;;;;;;;2.15;1.30;;;;;;;28.02;40.80;100039.50;6232343;28;20501;-76
2021/05/09 13:39:09;;;;;;;10.85;1.48;;;;;;;28.29;39.72;100037.50;6233788;28;20128;-76
2021/05/09 13:42:11;;;;;;;3.78;1.35;;;;;;;28.22;39.44;100020.50;6232767;28;20056;-76
2021/05/09 13:45:14;;;;;;;5.68;1.30;;;;;;;28.53;38.53;100023.28;6233575;28;20103;-77
2021/05/09 13:48:15;;;;;;;3.55;1.27;;;;;;;28.57;39.55;100018.28;6233549;28;20046;-77
2021/05/09 13:51:16;;;;;;;4.07;1.48;;;;;;;28.59;39.57;100016.19;6232029;28;20103;-76
2021/05/09 13:54:17;;;;;;;5.28;1.60;;;;;;;28.59;39.50;100027.00;6234033;28;20049;-77
2021/05/09 13:57:18;;;;;;;6.25;1.70;;;;;;;28.97;40.02;100020.72;6232356;28;20053;-77
2021/05/09 14:00:20;;;;;;;89.70;4.55;;;;;;;29.00;38.37;100020.31;6232161;28;20534;-77
2021/05/09 14:03:20;;;;;;;5.93;2.78;;;;;;;28.88;38.17;100012.03;6236573;28;20073;-77
2021/05/09 14:06:21;;;;;;;3.60;2.17;;;;;;;28.95;37.60;100020.97;6236458;28;20053;-76
2021/05/09 14:09:22;;;;;;;6.70;1.40;;;;;;;28.73;37.35;100008.81;6234261;28;20054;-76